Hel, Poland
Current Conditions -  °F | °C
As of 6:30 AM on Wednesday 22 Oct 2014 (Local Time) from EPGD Reporting Station
Haze Haze  
Wind Chill: 46°   Ceiling: 200
Heat Index: 48°   Visibility: 1.5mi
Dew Point: 48°   Wind: 6mph
Humidity: 100%   Direction: 140°SE
Pressure: 29.56"   Gusts: NA
Location:  54.6°N, 18.82°E
Report Text: EPGD 220430Z 14005KT 100V180 2500 BR FEW001 OVC002 09/09 Q1001
Loading
Personal Weather Stations






























Interactive Weather Map
Tropical Storm Tracking
New forecast layout! Learn more

10-Day Weather Forecast

Advertisements
Track Severe Weather on mobile